sensor_id;sensor_type;location;lat;lon;timestamp;P1;durP1;ratioP1;P2;durP2;ratioP2
71671;SDS011;67659;45.554;11.812;2023-06-14T00:00:58;9.45;;;5.68;;
71671;SDS011;67659;45.554;11.812;2023-06-14T00:03:24;9.47;;;6.03;;
71671;SDS011;67659;45.554;11.812;2023-06-14T00:05:51;10.57;;;6.27;;
71671;SDS011;67659;45.554;11.812;2023-06-14T00:08:17;10.95;;;5.97;;
71671;SDS011;67659;45.554;11.812;2023-06-14T00:10:44;10.07;;;5.88;;
71671;SDS011;67659;45.554;11.812;2023-06-14T00:13:10;10.27;;;6.35;;
71671;SDS011;67659;45.554;11.812;2023-06-14T00:15:36;10.48;;;6.00;;
71671;SDS011;67659;45.554;11.812;2023-06-14T00:18:03;9.47;;;5.87;;
71671;SDS011;67659;45.554;11.812;2023-06-14T00:20:30;10.15;;;6.15;;
71671;SDS011;67659;45.554;11.812;2023-06-14T00:23:01;9.30;;;5.95;;
71671;SDS011;67659;45.554;11.812;2023-06-14T00:25:27;11.68;;;6.30;;
71671;SDS011;67659;45.554;11.812;2023-06-14T00:27:55;9.45;;;5.90;;
71671;SDS011;67659;45.554;11.812;2023-06-14T00:30:21;9.87;;;5.57;;
71671;SDS011;67659;45.554;11.812;2023-06-14T00:32:47;9.05;;;6.10;;
71671;SDS011;67659;45.554;11.812;2023-06-14T00:35:13;9.48;;;6.07;;
71671;SDS011;67659;45.554;11.812;2023-06-14T00:37:40;10.85;;;6.18;;
71671;SDS011;67659;45.554;11.812;2023-06-14T00:40:06;10.17;;;5.80;;
71671;SDS011;67659;45.554;11.812;2023-06-14T00:42:32;9.07;;;6.00;;
71671;SDS011;67659;45.554;11.812;2023-06-14T00:44:59;9.80;;;5.97;;
71671;SDS011;67659;45.554;11.812;2023-06-14T00:47:26;11.73;;;6.30;;
71671;SDS011;67659;45.554;11.812;2023-06-14T00:49:52;9.38;;;5.75;;
71671;SDS011;67659;45.554;11.812;2023-06-14T00:52:19;11.43;;;6.10;;
71671;SDS011;67659;45.554;11.812;2023-06-14T00:54:46;9.57;;;6.00;;
71671;SDS011;67659;45.554;11.812;2023-06-14T00:57:12;10.88;;;6.10;;
71671;SDS011;67659;45.554;11.812;2023-06-14T00:59:41;9.90;;;6.60;;
71671;SDS011;67659;45.554;11.812;2023-06-14T01:02:09;9.85;;;6.20;;
71671;SDS011;67659;45.554;11.812;2023-06-14T01:04:36;10.87;;;6.13;;
71671;SDS011;67659;45.554;11.812;2023-06-14T01:10:01;9.38;;;6.50;;
71671;SDS011;67659;45.554;11.812;2023-06-14T01:15:30;11.10;;;6.90;;
71671;SDS011;67659;45.554;11.812;2023-06-14T01:17:57;9.43;;;6.40;;
71671;SDS011;67659;45.554;11.812;2023-06-14T01:20:28;10.57;;;6.95;;
71671;SDS011;67659;45.554;11.812;2023-06-14T01:22:56;11.02;;;6.65;;
71671;SDS011;67659;45.554;11.812;2023-06-14T01:25:22;11.38;;;7.13;;
71671;SDS011;67659;45.554;11.812;2023-06-14T01:27:51;11.93;;;6.90;;
71671;SDS011;67659;45.554;11.812;2023-06-14T01:30:20;13.57;;;6.70;;
71671;SDS011;67659;45.554;11.812;2023-06-14T01:32:48;10.38;;;6.72;;
71671;SDS011;67659;45.554;11.812;2023-06-14T01:35:18;12.93;;;6.78;;
71671;SDS011;67659;45.554;11.812;2023-06-14T01:37:43;12.73;;;7.10;;
71671;SDS011;67659;45.554;11.812;2023-06-14T01:40:12;11.75;;;7.15;;
71671;SDS011;67659;45.554;11.812;2023-06-14T01:42:40;11.95;;;6.80;;
71671;SDS011;67659;45.554;11.812;2023-06-14T01:45:08;10.75;;;7.50;;
71671;SDS011;67659;45.554;11.812;2023-06-14T01:47:36;9.95;;;6.68;;
71671;SDS011;67659;45.554;11.812;2023-06-14T01:50:02;12.03;;;7.00;;
71671;SDS011;67659;45.554;11.812;2023-06-14T01:52:29;16.38;;;7.18;;
71671;SDS011;67659;45.554;11.812;2023-06-14T01:54:54;11.20;;;7.07;;
71671;SDS011;67659;45.554;11.812;2023-06-14T01:57:20;12.77;;;6.60;;
71671;SDS011;67659;45.554;11.812;2023-06-14T01:59:47;11.82;;;7.03;;
71671;SDS011;67659;45.554;11.812;2023-06-14T02:02:14;14.13;;;7.88;;
71671;SDS011;67659;45.554;11.812;2023-06-14T02:04:41;14.00;;;7.30;;
71671;SDS011;67659;45.554;11.812;2023-06-14T02:07:07;11.90;;;7.28;;
71671;SDS011;67659;45.554;11.812;2023-06-14T02:09:33;12.33;;;7.43;;
71671;SDS011;67659;45.554;11.812;2023-06-14T02:12:01;11.57;;;7.82;;
71671;SDS011;67659;45.554;11.812;2023-06-14T02:14:27;11.60;;;6.18;;
71671;SDS011;67659;45.554;11.812;2023-06-14T02:16:53;12.97;;;7.83;;
71671;SDS011;67659;45.554;11.812;2023-06-14T02:19:19;10.85;;;7.38;;
71671;SDS011;67659;45.554;11.812;2023-06-14T02:21:46;11.70;;;7.70;;
71671;SDS011;67659;45.554;11.812;2023-06-14T02:24:12;12.27;;;7.85;;
71671;SDS011;67659;45.554;11.812;2023-06-14T02:26:38;11.40;;;6.95;;
71671;SDS011;67659;45.554;11.812;2023-06-14T02:29:05;12.53;;;7.60;;
71671;SDS011;67659;45.554;11.812;2023-06-14T02:31:32;13.07;;;7.63;;
71671;SDS011;67659;45.554;11.812;2023-06-14T02:33:58;12.43;;;7.82;;
71671;SDS011;67659;45.554;11.812;2023-06-14T02:36:23;13.88;;;7.25;;
71671;SDS011;67659;45.554;11.812;2023-06-14T02:38:50;13.43;;;7.53;;
71671;SDS011;67659;45.554;11.812;2023-06-14T02:41:16;11.82;;;7.35;;
71671;SDS011;67659;45.554;11.812;2023-06-14T02:43:42;11.43;;;7.57;;
71671;SDS011;67659;45.554;11.812;2023-06-14T02:46:08;12.18;;;7.60;;
71671;SDS011;67659;45.554;11.812;2023-06-14T02:48:34;11.17;;;7.80;;
71671;SDS011;67659;45.554;11.812;2023-06-14T02:50:59;12.68;;;8.07;;
71671;SDS011;67659;45.554;11.812;2023-06-14T02:53:25;12.20;;;7.93;;
71671;SDS011;67659;45.554;11.812;2023-06-14T02:55:52;11.73;;;8.05;;
71671;SDS011;67659;45.554;11.812;2023-06-14T02:58:17;11.50;;;7.80;;
71671;SDS011;67659;45.554;11.812;2023-06-14T03:00:44;12.20;;;7.97;;
71671;SDS011;67659;45.554;11.812;2023-06-14T03:03:09;13.57;;;8.05;;
71671;SDS011;67659;45.554;11.812;2023-06-14T03:05:41;12.50;;;8.30;;
71671;SDS011;67659;45.554;11.812;2023-06-14T03:08:13;11.30;;;8.30;;
71671;SDS011;67659;45.554;11.812;2023-06-14T03:10:47;11.27;;;7.93;;
71671;SDS011;67659;45.554;11.812;2023-06-14T03:13:14;12.38;;;8.00;;
71671;SDS011;67659;45.554;11.812;2023-06-14T03:15:46;12.88;;;8.07;;
71671;SDS011;67659;45.554;11.812;2023-06-14T03:18:12;16.05;;;8.07;;
71671;SDS011;67659;45.554;11.812;2023-06-14T03:20:40;11.23;;;7.80;;
71671;SDS011;67659;45.554;11.812;2023-06-14T03:23:07;11.90;;;7.78;;
71671;SDS011;67659;45.554;11.812;2023-06-14T03:25:34;12.57;;;7.82;;
71671;SDS011;67659;45.554;11.812;2023-06-14T03:28:03;12.05;;;8.13;;
71671;SDS011;67659;45.554;11.812;2023-06-14T03:30:31;12.38;;;7.88;;
71671;SDS011;67659;45.554;11.812;2023-06-14T03:32:57;13.87;;;8.60;;
71671;SDS011;67659;45.554;11.812;2023-06-14T03:35:26;12.55;;;8.35;;
71671;SDS011;67659;45.554;11.812;2023-06-14T03:37:52;10.98;;;7.32;;
71671;SDS011;67659;45.554;11.812;2023-06-14T03:40:18;12.57;;;8.15;;
71671;SDS011;67659;45.554;11.812;2023-06-14T03:42:46;11.97;;;7.83;;
71671;SDS011;67659;45.554;11.812;2023-06-14T03:45:12;11.68;;;7.60;;
71671;SDS011;67659;45.554;11.812;2023-06-14T03:47:38;12.18;;;7.43;;
71671;SDS011;67659;45.554;11.812;2023-06-14T03:50:04;11.47;;;7.67;;
71671;SDS011;67659;45.554;11.812;2023-06-14T03:52:30;11.57;;;7.95;;
71671;SDS011;67659;45.554;11.812;2023-06-14T03:54:57;11.02;;;7.97;;
71671;SDS011;67659;45.554;11.812;2023-06-14T03:57:25;14.93;;;8.35;;
71671;SDS011;67659;45.554;11.812;2023-06-14T03:59:51;12.23;;;8.07;;
71671;SDS011;67659;45.554;11.812;2023-06-14T04:02:17;12.48;;;8.18;;
71671;SDS011;67659;45.554;11.812;2023-06-14T04:04:44;13.80;;;7.70;;
71671;SDS011;67659;45.554;11.812;2023-06-14T04:07:14;12.55;;;7.65;;
71671;SDS011;67659;45.554;11.812;2023-06-14T04:09:40;11.55;;;7.85;;
71671;SDS011;67659;45.554;11.812;2023-06-14T04:12:07;12.67;;;7.47;;
71671;SDS011;67659;45.554;11.812;2023-06-14T04:14:34;12.23;;;7.78;;
71671;SDS011;67659;45.554;11.812;2023-06-14T04:17:00;11.60;;;7.35;;
71671;SDS011;67659;45.554;11.812;2023-06-14T04:19:26;13.38;;;8.10;;
71671;SDS011;67659;45.554;11.812;2023-06-14T04:21:52;12.20;;;7.93;;
71671;SDS011;67659;45.554;11.812;2023-06-14T04:24:18;12.68;;;8.20;;
71671;SDS011;67659;45.554;11.812;2023-06-14T04:26:44;15.02;;;8.77;;
71671;SDS011;67659;45.554;11.812;2023-06-14T04:29:12;16.17;;;8.20;;
71671;SDS011;67659;45.554;11.812;2023-06-14T04:31:42;13.43;;;7.97;;
71671;SDS011;67659;45.554;11.812;2023-06-14T04:34:09;14.23;;;8.02;;
71671;SDS011;67659;45.554;11.812;2023-06-14T04:36:41;12.70;;;7.90;;
71671;SDS011;67659;45.554;11.812;2023-06-14T04:39:14;11.63;;;7.70;;
71671;SDS011;67659;45.554;11.812;2023-06-14T04:41:42;12.20;;;8.45;;
71671;SDS011;67659;45.554;11.812;2023-06-14T04:44:09;11.10;;;7.63;;
71671;SDS011;67659;45.554;11.812;2023-06-14T04:46:35;14.02;;;8.05;;
71671;SDS011;67659;45.554;11.812;2023-06-14T04:49:12;14.38;;;8.40;;
71671;SDS011;67659;45.554;11.812;2023-06-14T04:51:40;11.90;;;7.95;;
71671;SDS011;67659;45.554;11.812;2023-06-14T04:54:07;16.45;;;8.25;;
71671;SDS011;67659;45.554;11.812;2023-06-14T04:56:40;12.30;;;8.30;;
71671;SDS011;67659;45.554;11.812;2023-06-14T04:59:07;11.57;;;7.80;;
71671;SDS011;67659;45.554;11.812;2023-06-14T05:01:34;12.02;;;7.45;;
71671;SDS011;67659;45.554;11.812;2023-06-14T05:04:00;12.80;;;8.27;;
71671;SDS011;67659;45.554;11.812;2023-06-14T05:06:26;12.45;;;8.18;;
71671;SDS011;67659;45.554;11.812;2023-06-14T05:08:52;11.87;;;8.10;;
71671;SDS011;67659;45.554;11.812;2023-06-14T05:11:19;14.82;;;8.23;;
71671;SDS011;67659;45.554;11.812;2023-06-14T05:13:45;13.82;;;7.72;;
71671;SDS011;67659;45.554;11.812;2023-06-14T05:16:11;13.20;;;7.93;;
71671;SDS011;67659;45.554;11.812;2023-06-14T05:18:40;12.23;;;8.20;;
71671;SDS011;67659;45.554;11.812;2023-06-14T05:21:06;11.67;;;8.30;;
71671;SDS011;67659;45.554;11.812;2023-06-14T05:23:32;12.95;;;8.40;;
71671;SDS011;67659;45.554;11.812;2023-06-14T05:25:58;12.90;;;8.07;;
71671;SDS011;67659;45.554;11.812;2023-06-14T05:28:24;13.20;;;8.07;;
71671;SDS011;67659;45.554;11.812;2023-06-14T05:30:50;12.13;;;8.20;;
71671;SDS011;67659;45.554;11.812;2023-06-14T05:33:16;13.77;;;8.45;;
71671;SDS011;67659;45.554;11.812;2023-06-14T05:35:42;13.57;;;7.63;;
71671;SDS011;67659;45.554;11.812;2023-06-14T05:38:08;13.07;;;8.00;;
71671;SDS011;67659;45.554;11.812;2023-06-14T05:40:34;13.13;;;8.50;;
71671;SDS011;67659;45.554;11.812;2023-06-14T05:43:00;11.67;;;7.97;;
71671;SDS011;67659;45.554;11.812;2023-06-14T05:45:26;15.52;;;8.20;;
71671;SDS011;67659;45.554;11.812;2023-06-14T05:47:52;13.43;;;8.65;;
71671;SDS011;67659;45.554;11.812;2023-06-14T05:50:19;11.77;;;7.00;;
71671;SDS011;67659;45.554;11.812;2023-06-14T05:52:46;14.13;;;7.67;;
71671;SDS011;67659;45.554;11.812;2023-06-14T05:55:12;12.82;;;8.38;;
71671;SDS011;67659;45.554;11.812;2023-06-14T05:57:38;13.45;;;7.63;;
71671;SDS011;67659;45.554;11.812;2023-06-14T06:00:06;11.32;;;7.55;;
71671;SDS011;67659;45.554;11.812;2023-06-14T06:02:42;9.60;;;6.70;;
71671;SDS011;67659;45.554;11.812;2023-06-14T06:05:09;9.97;;;7.10;;
71671;SDS011;67659;45.554;11.812;2023-06-14T06:07:36;11.32;;;7.38;;
71671;SDS011;67659;45.554;11.812;2023-06-14T06:10:03;10.85;;;6.28;;
71671;SDS011;67659;45.554;11.812;2023-06-14T06:12:30;10.75;;;6.93;;
71671;SDS011;67659;45.554;11.812;2023-06-14T06:14:56;10.77;;;6.90;;
71671;SDS011;67659;45.554;11.812;2023-06-14T06:17:22;11.33;;;6.17;;
71671;SDS011;67659;45.554;11.812;2023-06-14T06:19:48;10.32;;;6.45;;
71671;SDS011;67659;45.554;11.812;2023-06-14T06:22:14;9.88;;;5.93;;
71671;SDS011;67659;45.554;11.812;2023-06-14T06:24:40;9.30;;;6.10;;
71671;SDS011;67659;45.554;11.812;2023-06-14T06:27:06;8.63;;;5.30;;
71671;SDS011;67659;45.554;11.812;2023-06-14T06:29:33;9.77;;;6.05;;
71671;SDS011;67659;45.554;11.812;2023-06-14T06:32:00;9.32;;;5.35;;
71671;SDS011;67659;45.554;11.812;2023-06-14T06:34:26;7.72;;;4.95;;
71671;SDS011;67659;45.554;11.812;2023-06-14T06:36:53;8.60;;;4.93;;
71671;SDS011;67659;45.554;11.812;2023-06-14T06:39:19;7.97;;;5.20;;
71671;SDS011;67659;45.554;11.812;2023-06-14T06:41:45;8.63;;;5.35;;
71671;SDS011;67659;45.554;11.812;2023-06-14T06:44:15;9.13;;;5.57;;
71671;SDS011;67659;45.554;11.812;2023-06-14T06:46:41;8.50;;;5.32;;
71671;SDS011;67659;45.554;11.812;2023-06-14T06:49:09;7.13;;;4.70;;
71671;SDS011;67659;45.554;11.812;2023-06-14T06:51:36;7.50;;;5.10;;
71671;SDS011;67659;45.554;11.812;2023-06-14T06:54:03;10.13;;;4.93;;
71671;SDS011;67659;45.554;11.812;2023-06-14T06:56:29;12.00;;;4.85;;
71671;SDS011;67659;45.554;11.812;2023-06-14T06:58:56;7.83;;;4.03;;
71671;SDS011;67659;45.554;11.812;2023-06-14T07:01:22;6.82;;;4.10;;
71671;SDS011;67659;45.554;11.812;2023-06-14T07:03:58;7.80;;;4.15;;
71671;SDS011;67659;45.554;11.812;2023-06-14T07:06:24;9.63;;;4.10;;
71671;SDS011;67659;45.554;11.812;2023-06-14T07:08:52;7.43;;;4.20;;
71671;SDS011;67659;45.554;11.812;2023-06-14T07:11:18;7.50;;;4.20;;
71671;SDS011;67659;45.554;11.812;2023-06-14T07:13:43;6.97;;;4.20;;
71671;SDS011;67659;45.554;11.812;2023-06-14T07:16:10;8.73;;;4.18;;
71671;SDS011;67659;45.554;11.812;2023-06-14T07:18:36;7.37;;;4.00;;
71671;SDS011;67659;45.554;11.812;2023-06-14T07:21:02;7.97;;;3.88;;
71671;SDS011;67659;45.554;11.812;2023-06-14T07:23:28;10.20;;;4.10;;
71671;SDS011;67659;45.554;11.812;2023-06-14T07:25:54;6.60;;;3.90;;
71671;SDS011;67659;45.554;11.812;2023-06-14T07:28:20;6.88;;;4.13;;
71671;SDS011;67659;45.554;11.812;2023-06-14T07:30:46;7.22;;;4.20;;
71671;SDS011;67659;45.554;11.812;2023-06-14T07:33:13;6.60;;;3.80;;
71671;SDS011;67659;45.554;11.812;2023-06-14T07:35:39;7.22;;;4.22;;
71671;SDS011;67659;45.554;11.812;2023-06-14T07:38:05;6.60;;;3.80;;
71671;SDS011;67659;45.554;11.812;2023-06-14T07:40:31;6.83;;;4.00;;
71671;SDS011;67659;45.554;11.812;2023-06-14T07:42:57;7.07;;;4.00;;
71671;SDS011;67659;45.554;11.812;2023-06-14T07:45:22;7.22;;;4.10;;
71671;SDS011;67659;45.554;11.812;2023-06-14T07:47:48;9.17;;;4.60;;
71671;SDS011;67659;45.554;11.812;2023-06-14T07:50:15;7.32;;;4.22;;
71671;SDS011;67659;45.554;11.812;2023-06-14T07:52:41;7.15;;;4.43;;
71671;SDS011;67659;45.554;11.812;2023-06-14T07:55:07;6.35;;;3.88;;
71671;SDS011;67659;45.554;11.812;2023-06-14T07:57:33;8.85;;;3.97;;
71671;SDS011;67659;45.554;11.812;2023-06-14T07:59:59;9.50;;;4.37;;
71671;SDS011;67659;45.554;11.812;2023-06-14T08:02:24;7.13;;;4.20;;
71671;SDS011;67659;45.554;11.812;2023-06-14T08:04:50;6.57;;;3.70;;
71671;SDS011;67659;45.554;11.812;2023-06-14T08:07:17;7.70;;;3.80;;
71671;SDS011;67659;45.554;11.812;2023-06-14T08:09:43;7.30;;;3.95;;
71671;SDS011;67659;45.554;11.812;2023-06-14T08:12:09;7.53;;;3.87;;
71671;SDS011;67659;45.554;11.812;2023-06-14T08:14:35;5.72;;;3.70;;
71671;SDS011;67659;45.554;11.812;2023-06-14T08:17:01;8.70;;;4.03;;
71671;SDS011;67659;45.554;11.812;2023-06-14T08:19:27;6.65;;;3.92;;
71671;SDS011;67659;45.554;11.812;2023-06-14T08:21:53;8.00;;;3.90;;
71671;SDS011;67659;45.554;11.812;2023-06-14T08:24:23;6.70;;;3.70;;
71671;SDS011;67659;45.554;11.812;2023-06-14T08:26:54;7.03;;;3.88;;
71671;SDS011;67659;45.554;11.812;2023-06-14T08:29:21;9.77;;;4.78;;
71671;SDS011;67659;45.554;11.812;2023-06-14T08:31:47;7.10;;;4.15;;
71671;SDS011;67659;45.554;11.812;2023-06-14T08:34:13;8.23;;;3.88;;
71671;SDS011;67659;45.554;11.812;2023-06-14T08:36:39;11.50;;;4.00;;
71671;SDS011;67659;45.554;11.812;2023-06-14T08:39:06;7.03;;;4.22;;
71671;SDS011;67659;45.554;11.812;2023-06-14T08:41:34;7.50;;;4.25;;
71671;SDS011;67659;45.554;11.812;2023-06-14T08:44:00;7.57;;;4.07;;
71671;SDS011;67659;45.554;11.812;2023-06-14T08:46:26;7.13;;;4.03;;
71671;SDS011;67659;45.554;11.812;2023-06-14T08:48:55;7.18;;;4.30;;
71671;SDS011;67659;45.554;11.812;2023-06-14T08:51:24;7.95;;;4.05;;
71671;SDS011;67659;45.554;11.812;2023-06-14T08:53:53;7.20;;;4.57;;
71671;SDS011;67659;45.554;11.812;2023-06-14T08:56:23;7.67;;;4.20;;
71671;SDS011;67659;45.554;11.812;2023-06-14T08:58:51;9.55;;;4.43;;
71671;SDS011;67659;45.554;11.812;2023-06-14T09:01:17;7.55;;;4.70;;
71671;SDS011;67659;45.554;11.812;2023-06-14T09:03:44;6.88;;;4.30;;
71671;SDS011;67659;45.554;11.812;2023-06-14T09:06:10;8.00;;;4.18;;
71671;SDS011;67659;45.554;11.812;2023-06-14T09:08:42;8.03;;;3.80;;
71671;SDS011;67659;45.554;11.812;2023-06-14T09:11:11;6.85;;;4.20;;
71671;SDS011;67659;45.554;11.812;2023-06-14T09:13:39;7.30;;;4.30;;
71671;SDS011;67659;45.554;11.812;2023-06-14T09:16:06;6.45;;;3.90;;
71671;SDS011;67659;45.554;11.812;2023-06-14T09:18:41;8.43;;;4.05;;
71671;SDS011;67659;45.554;11.812;2023-06-14T09:21:13;8.47;;;4.20;;
71671;SDS011;67659;45.554;11.812;2023-06-14T09:23:46;7.75;;;3.78;;
71671;SDS011;67659;45.554;11.812;2023-06-14T09:26:13;7.20;;;4.18;;
71671;SDS011;67659;45.554;11.812;2023-06-14T09:28:46;10.32;;;4.07;;
71671;SDS011;67659;45.554;11.812;2023-06-14T09:31:14;10.73;;;4.50;;
71671;SDS011;67659;45.554;11.812;2023-06-14T09:33:44;6.93;;;4.13;;
71671;SDS011;67659;45.554;11.812;2023-06-14T09:36:16;7.57;;;4.43;;
71671;SDS011;67659;45.554;11.812;2023-06-14T09:38:59;7.68;;;4.20;;
71671;SDS011;67659;45.554;11.812;2023-06-14T09:41:32;6.47;;;3.78;;
71671;SDS011;67659;45.554;11.812;2023-06-14T09:44:04;7.43;;;3.88;;
71671;SDS011;67659;45.554;11.812;2023-06-14T09:46:31;7.43;;;3.60;;
71671;SDS011;67659;45.554;11.812;2023-06-14T09:48:58;8.18;;;4.00;;
71671;SDS011;67659;45.554;11.812;2023-06-14T09:51:25;6.72;;;4.13;;
71671;SDS011;67659;45.554;11.812;2023-06-14T09:53:53;9.50;;;4.22;;
71671;SDS011;67659;45.554;11.812;2023-06-14T09:56:27;8.70;;;4.22;;
71671;SDS011;67659;45.554;11.812;2023-06-14T09:58:57;7.27;;;4.10;;
71671;SDS011;67659;45.554;11.812;2023-06-14T10:01:24;8.73;;;4.30;;
71671;SDS011;67659;45.554;11.812;2023-06-14T10:03:58;7.75;;;3.92;;
71671;SDS011;67659;45.554;11.812;2023-06-14T10:06:27;7.43;;;3.90;;
71671;SDS011;67659;45.554;11.812;2023-06-14T10:08:56;7.32;;;3.70;;
71671;SDS011;67659;45.554;11.812;2023-06-14T10:11:25;6.73;;;3.77;;
71671;SDS011;67659;45.554;11.812;2023-06-14T10:13:52;9.32;;;3.90;;
71671;SDS011;67659;45.554;11.812;2023-06-14T10:21:34;7.32;;;3.90;;
71671;SDS011;67659;45.554;11.812;2023-06-14T10:24:08;6.67;;;3.90;;
71671;SDS011;67659;45.554;11.812;2023-06-14T10:26:49;7.80;;;3.95;;
71671;SDS011;67659;45.554;11.812;2023-06-14T10:29:17;7.47;;;4.03;;
71671;SDS011;67659;45.554;11.812;2023-06-14T10:31:43;9.45;;;4.00;;
71671;SDS011;67659;45.554;11.812;2023-06-14T10:34:23;7.43;;;4.10;;
71671;SDS011;67659;45.554;11.812;2023-06-14T10:37:00;6.70;;;4.20;;
71671;SDS011;67659;45.554;11.812;2023-06-14T10:39:28;7.15;;;3.70;;
71671;SDS011;67659;45.554;11.812;2023-06-14T10:41:55;7.03;;;4.00;;
71671;SDS011;67659;45.554;11.812;2023-06-14T10:46:54;7.43;;;4.10;;
71671;SDS011;67659;45.554;11.812;2023-06-14T10:52:10;7.78;;;3.95;;
71671;SDS011;67659;45.554;11.812;2023-06-14T10:57:24;8.60;;;4.20;;
71671;SDS011;67659;45.554;11.812;2023-06-14T10:59:50;6.97;;;3.80;;
71671;SDS011;67659;45.554;11.812;2023-06-14T11:02:27;7.88;;;3.88;;
71671;SDS011;67659;45.554;11.812;2023-06-14T11:05:14;7.10;;;3.90;;
71671;SDS011;67659;45.554;11.812;2023-06-14T11:10:37;7.53;;;3.70;;
71671;SDS011;67659;45.554;11.812;2023-06-14T11:13:07;6.47;;;3.93;;
71671;SDS011;67659;45.554;11.812;2023-06-14T11:15:34;6.95;;;3.85;;
71671;SDS011;67659;45.554;11.812;2023-06-14T11:18:02;7.68;;;3.85;;
71671;SDS011;67659;45.554;11.812;2023-06-14T11:20:34;7.22;;;3.80;;
71671;SDS011;67659;45.554;11.812;2023-06-14T11:23:01;7.25;;;4.20;;
71671;SDS011;67659;45.554;11.812;2023-06-14T11:25:28;6.40;;;4.00;;
71671;SDS011;67659;45.554;11.812;2023-06-14T11:27:54;7.03;;;3.90;;
71671;SDS011;67659;45.554;11.812;2023-06-14T11:30:21;6.78;;;3.80;;
71671;SDS011;67659;45.554;11.812;2023-06-14T11:32:47;6.88;;;3.80;;
71671;SDS011;67659;45.554;11.812;2023-06-14T11:35:15;7.45;;;3.80;;
71671;SDS011;67659;45.554;11.812;2023-06-14T11:37:41;7.10;;;3.93;;
71671;SDS011;67659;45.554;11.812;2023-06-14T11:40:09;6.53;;;3.58;;
71671;SDS011;67659;45.554;11.812;2023-06-14T11:42:37;7.53;;;3.97;;
71671;SDS011;67659;45.554;11.812;2023-06-14T11:45:07;6.65;;;4.00;;
71671;SDS011;67659;45.554;11.812;2023-06-14T11:47:35;6.55;;;3.88;;
71671;SDS011;67659;45.554;11.812;2023-06-14T11:50:01;7.43;;;3.73;;
71671;SDS011;67659;45.554;11.812;2023-06-14T11:52:29;6.88;;;3.83;;
71671;SDS011;67659;45.554;11.812;2023-06-14T11:54:56;7.57;;;3.92;;
71671;SDS011;67659;45.554;11.812;2023-06-14T11:57:22;6.93;;;3.67;;
71671;SDS011;67659;45.554;11.812;2023-06-14T11:59:49;9.30;;;4.38;;
71671;SDS011;67659;45.554;11.812;2023-06-14T12:02:15;8.13;;;4.13;;
71671;SDS011;67659;45.554;11.812;2023-06-14T12:04:48;9.40;;;4.15;;
71671;SDS011;67659;45.554;11.812;2023-06-14T12:07:15;7.68;;;3.78;;
71671;SDS011;67659;45.554;11.812;2023-06-14T12:10:03;7.88;;;4.05;;
71671;SDS011;67659;45.554;11.812;2023-06-14T12:12:34;7.95;;;4.20;;
71671;SDS011;67659;45.554;11.812;2023-06-14T12:15:06;7.47;;;3.73;;
71671;SDS011;67659;45.554;11.812;2023-06-14T12:17:34;6.55;;;4.05;;
71671;SDS011;67659;45.554;11.812;2023-06-14T12:20:07;6.10;;;3.83;;
71671;SDS011;67659;45.554;11.812;2023-06-14T12:22:39;9.23;;;4.13;;
71671;SDS011;67659;45.554;11.812;2023-06-14T12:25:31;6.78;;;3.97;;
71671;SDS011;67659;45.554;11.812;2023-06-14T12:27:59;6.87;;;4.03;;
71671;SDS011;67659;45.554;11.812;2023-06-14T12:30:30;7.65;;;4.10;;
71671;SDS011;67659;45.554;11.812;2023-06-14T12:32:55;7.35;;;4.07;;
71671;SDS011;67659;45.554;11.812;2023-06-14T12:35:21;8.00;;;4.13;;
71671;SDS011;67659;45.554;11.812;2023-06-14T12:37:47;7.43;;;3.92;;
71671;SDS011;67659;45.554;11.812;2023-06-14T12:40:13;7.30;;;4.03;;
71671;SDS011;67659;45.554;11.812;2023-06-14T12:42:41;7.55;;;4.05;;
71671;SDS011;67659;45.554;11.812;2023-06-14T12:45:07;7.00;;;3.63;;
71671;SDS011;67659;45.554;11.812;2023-06-14T12:47:33;6.28;;;3.90;;
71671;SDS011;67659;45.554;11.812;2023-06-14T12:50:00;6.75;;;3.70;;
71671;SDS011;67659;45.554;11.812;2023-06-14T12:52:26;6.90;;;4.05;;
71671;SDS011;67659;45.554;11.812;2023-06-14T12:54:52;7.20;;;3.60;;
71671;SDS011;67659;45.554;11.812;2023-06-14T12:57:18;8.48;;;4.20;;
71671;SDS011;67659;45.554;11.812;2023-06-14T12:59:44;7.20;;;3.97;;
71671;SDS011;67659;45.554;11.812;2023-06-14T13:02:15;7.63;;;4.30;;
71671;SDS011;67659;45.554;11.812;2023-06-14T13:04:42;7.50;;;4.15;;
71671;SDS011;67659;45.554;11.812;2023-06-14T13:07:08;7.20;;;4.00;;
71671;SDS011;67659;45.554;11.812;2023-06-14T13:09:35;8.48;;;4.43;;
71671;SDS011;67659;45.554;11.812;2023-06-14T13:12:01;10.35;;;4.40;;
71671;SDS011;67659;45.554;11.812;2023-06-14T13:14:28;7.20;;;3.67;;
71671;SDS011;67659;45.554;11.812;2023-06-14T13:16:53;7.40;;;3.97;;
71671;SDS011;67659;45.554;11.812;2023-06-14T13:19:20;7.80;;;4.20;;
71671;SDS011;67659;45.554;11.812;2023-06-14T13:21:46;6.82;;;4.05;;
71671;SDS011;67659;45.554;11.812;2023-06-14T13:24:12;8.33;;;3.87;;
71671;SDS011;67659;45.554;11.812;2023-06-14T13:26:38;8.57;;;4.32;;
71671;SDS011;67659;45.554;11.812;2023-06-14T13:29:04;7.90;;;4.13;;
71671;SDS011;67659;45.554;11.812;2023-06-14T13:31:30;6.77;;;3.83;;
71671;SDS011;67659;45.554;11.812;2023-06-14T13:33:56;8.43;;;4.13;;
71671;SDS011;67659;45.554;11.812;2023-06-14T13:36:21;7.32;;;3.83;;
71671;SDS011;67659;45.554;11.812;2023-06-14T13:38:47;7.40;;;4.10;;
71671;SDS011;67659;45.554;11.812;2023-06-14T13:41:13;7.63;;;4.22;;
71671;SDS011;67659;45.554;11.812;2023-06-14T13:43:39;7.77;;;4.00;;
71671;SDS011;67659;45.554;11.812;2023-06-14T13:46:05;7.47;;;4.22;;
71671;SDS011;67659;45.554;11.812;2023-06-14T13:48:31;9.27;;;4.57;;
71671;SDS011;67659;45.554;11.812;2023-06-14T13:50:59;8.67;;;4.30;;
71671;SDS011;67659;45.554;11.812;2023-06-14T13:53:25;8.63;;;4.60;;
71671;SDS011;67659;45.554;11.812;2023-06-14T13:55:51;6.88;;;4.30;;
71671;SDS011;67659;45.554;11.812;2023-06-14T13:58:17;8.83;;;4.70;;
71671;SDS011;67659;45.554;11.812;2023-06-14T14:00:44;6.90;;;4.00;;
71671;SDS011;67659;45.554;11.812;2023-06-14T14:03:09;7.75;;;4.43;;
71671;SDS011;67659;45.554;11.812;2023-06-14T14:05:36;7.25;;;4.30;;
71671;SDS011;67659;45.554;11.812;2023-06-14T14:08:02;8.20;;;4.40;;
71671;SDS011;67659;45.554;11.812;2023-06-14T14:10:29;8.73;;;4.60;;
71671;SDS011;67659;45.554;11.812;2023-06-14T14:12:54;8.73;;;4.65;;
71671;SDS011;67659;45.554;11.812;2023-06-14T14:15:21;8.35;;;4.60;;
71671;SDS011;67659;45.554;11.812;2023-06-14T14:17:47;7.40;;;4.23;;
71671;SDS011;67659;45.554;11.812;2023-06-14T14:20:13;6.90;;;4.32;;
71671;SDS011;67659;45.554;11.812;2023-06-14T14:22:42;8.20;;;4.00;;
71671;SDS011;67659;45.554;11.812;2023-06-14T14:25:08;8.07;;;4.07;;
71671;SDS011;67659;45.554;11.812;2023-06-14T14:27:34;7.13;;;3.95;;
71671;SDS011;67659;45.554;11.812;2023-06-14T14:30:00;6.23;;;3.80;;
71671;SDS011;67659;45.554;11.812;2023-06-14T14:32:26;6.63;;;4.30;;
71671;SDS011;67659;45.554;11.812;2023-06-14T14:34:52;11.45;;;4.13;;
71671;SDS011;67659;45.554;11.812;2023-06-14T14:37:18;7.88;;;4.13;;
71671;SDS011;67659;45.554;11.812;2023-06-14T14:39:44;7.57;;;4.20;;
71671;SDS011;67659;45.554;11.812;2023-06-14T14:42:11;7.03;;;3.92;;
71671;SDS011;67659;45.554;11.812;2023-06-14T14:44:37;7.65;;;4.20;;
71671;SDS011;67659;45.554;11.812;2023-06-14T14:47:04;8.73;;;4.30;;
71671;SDS011;67659;45.554;11.812;2023-06-14T14:49:33;6.23;;;3.90;;
71671;SDS011;67659;45.554;11.812;2023-06-14T14:51:59;5.88;;;4.00;;